Miles City, MT

12:41 AM MDT on September 19, 2014 (GMT -0600)
Dawson Community | Change Station
CLOSE
Current Station
Airport
Location: Glendive,
Elevation: 2457 ft
Nearby Weather Stations

Elev 2457 ft 47.14 °N, 104.81 °W | Updated 6 minutes ago

Clear
Clear
64 °F
Feels Like 64 °F
N
12
Wind Variable Wind from SW

Today
High -- | Low -- °F
--% Chance of Precip.
Yesterday
High -- | Low -- °F
Precip. -- in
6:46 AM 7:06 PM
Waning Crescent, 21% visible
Pressure 29.67 in
Visibility 10.0 miles
Clouds Clear
Dew Point 54 °F
Humidity 68%
Rainfall 0.00 in
Snow Depth Not available.
UV 0 out of 12
Pollen 5.90 out of 12
Air Quality Not available.
Flu Activity Not available.
METAR KGDV 190635Z AUTO 22010KT 10SM CLR 18/12 A2967 RMK AO1

More Conditions Fewer Conditions

Pressure 29.67 in
Visibility 10.0 miles
Clouds Clear
Dew Point 54 °F
Humidity 68%
Rainfall 0.00 in
Snow Depth Not available.
UV 0 out of 12
Pollen 5.90 out of 12
Air Quality Not available.
Flu Activity Not available.
METAR KGDV 190635Z AUTO 22010KT 10SM CLR 18/12 A2967 RMK AO1

More Conditions Fewer Conditions

10-Day Weather Forecast

Almanac

Astronomy

Sep. 19, 2014 Rise Set
Actual Time 6:46 AM MDT 7:06 PM MDT
Civil Twilight 6:16 AM MDT 7:36 PM MDT
Nautical Twilight 5:40 AM MDT 8:12 PM MDT
Astronomical Twilight 5:03 AM MDT 8:48 PM MDT
Moon 2:22 AM MDT 4:47 PM MDT
Length of Visible Light 13h 20m
Length of Day
12h 20m
Tomorrow will be 3m 16s shorter.
Waning Crescent, 21% of the Moon is Illuminated
Today
Waning Crescent
Sep 24
New
Oct 1
First Quarter
Oct 8
Full
Oct 15
Last Quarter

Today's Extremes

State Highs State Lows

Community

WunderPhotos

Upload Photos

1,754,575 photos uploaded!

Nearby

Snow Depth

Station Depth Elevation
Nevada Ridge 1 in 7020 ft
Boulder Mountain 0 in 7950 ft
Burnt Mountain 0 in 5880 ft
Cole Creek 1 in 7850 ft
Daisy Peak 0 in 7600 ft

Earthquake Activity

City Distance Mag. Time & Date
No recent earthquake activity has been reported nearby.
Minimum magnitude displayed is 2.5.

Coastal Water Temperatures

Place Temperature
No Stations Reporting

Nearby Weather Stations